sensor_id;sensor_type;location;lat;lon;timestamp;P1;durP1;ratioP1;P2;durP2;ratioP2
25111;SDS011;13092;51.996;4.458;2023-11-21T00:00:05;32.17;;;29.13;;
25111;SDS011;13092;51.996;4.458;2023-11-21T00:02:39;32.30;;;29.45;;
25111;SDS011;13092;51.996;4.458;2023-11-21T00:05:07;32.17;;;29.50;;
25111;SDS011;13092;51.996;4.458;2023-11-21T00:07:36;32.58;;;29.45;;
25111;SDS011;13092;51.996;4.458;2023-11-21T00:10:05;31.75;;;28.98;;
25111;SDS011;13092;51.996;4.458;2023-11-21T00:12:37;31.65;;;29.02;;
25111;SDS011;13092;51.996;4.458;2023-11-21T00:15:09;30.75;;;28.25;;
25111;SDS011;13092;51.996;4.458;2023-11-21T00:17:38;30.60;;;27.90;;
25111;SDS011;13092;51.996;4.458;2023-11-21T00:20:07;30.55;;;27.88;;
25111;SDS011;13092;51.996;4.458;2023-11-21T00:22:39;32.13;;;29.13;;
25111;SDS011;13092;51.996;4.458;2023-11-21T00:25:12;31.50;;;28.33;;
25111;SDS011;13092;51.996;4.458;2023-11-21T00:27:42;30.58;;;28.00;;
25111;SDS011;13092;51.996;4.458;2023-11-21T00:30:11;32.85;;;29.70;;
25111;SDS011;13092;51.996;4.458;2023-11-21T00:32:40;32.25;;;29.08;;
25111;SDS011;13092;51.996;4.458;2023-11-21T00:35:08;32.45;;;29.48;;
25111;SDS011;13092;51.996;4.458;2023-11-21T00:37:36;31.60;;;28.80;;
25111;SDS011;13092;51.996;4.458;2023-11-21T00:40:06;30.50;;;28.00;;
25111;SDS011;13092;51.996;4.458;2023-11-21T00:42:37;32.67;;;29.60;;
25111;SDS011;13092;51.996;4.458;2023-11-21T00:45:06;32.05;;;28.75;;
25111;SDS011;13092;51.996;4.458;2023-11-21T00:47:35;30.95;;;28.30;;
25111;SDS011;13092;51.996;4.458;2023-11-21T00:50:04;31.40;;;28.60;;
25111;SDS011;13092;51.996;4.458;2023-11-21T00:52:33;31.52;;;28.73;;
25111;SDS011;13092;51.996;4.458;2023-11-21T00:55:02;32.05;;;29.15;;
25111;SDS011;13092;51.996;4.458;2023-11-21T00:57:31;31.35;;;28.52;;
25111;SDS011;13092;51.996;4.458;2023-11-21T01:00:00;32.25;;;29.35;;
25111;SDS011;13092;51.996;4.458;2023-11-21T01:02:33;31.00;;;28.23;;
25111;SDS011;13092;51.996;4.458;2023-11-21T01:05:02;31.23;;;28.38;;
25111;SDS011;13092;51.996;4.458;2023-11-21T01:07:31;31.92;;;28.83;;
25111;SDS011;13092;51.996;4.458;2023-11-21T01:09:59;31.27;;;28.65;;
25111;SDS011;13092;51.996;4.458;2023-11-21T01:12:27;31.35;;;28.65;;
25111;SDS011;13092;51.996;4.458;2023-11-21T01:14:55;31.92;;;28.73;;
25111;SDS011;13092;51.996;4.458;2023-11-21T01:17:25;31.35;;;28.77;;
25111;SDS011;13092;51.996;4.458;2023-11-21T01:19:53;31.83;;;29.00;;
25111;SDS011;13092;51.996;4.458;2023-11-21T01:22:22;30.63;;;27.83;;
25111;SDS011;13092;51.996;4.458;2023-11-21T01:24:52;31.45;;;28.55;;
25111;SDS011;13092;51.996;4.458;2023-11-21T01:27:20;31.45;;;28.52;;
25111;SDS011;13092;51.996;4.458;2023-11-21T01:29:49;30.17;;;27.45;;
25111;SDS011;13092;51.996;4.458;2023-11-21T01:32:20;31.35;;;28.70;;
25111;SDS011;13092;51.996;4.458;2023-11-21T01:34:50;32.15;;;29.08;;
25111;SDS011;13092;51.996;4.458;2023-11-21T01:37:18;31.60;;;28.50;;
25111;SDS011;13092;51.996;4.458;2023-11-21T01:39:47;32.30;;;29.23;;
25111;SDS011;13092;51.996;4.458;2023-11-21T01:42:16;30.48;;;27.95;;
25111;SDS011;13092;51.996;4.458;2023-11-21T01:44:44;31.70;;;28.67;;
25111;SDS011;13092;51.996;4.458;2023-11-21T01:47:12;31.58;;;28.77;;
25111;SDS011;13092;51.996;4.458;2023-11-21T01:49:43;31.80;;;29.13;;
25111;SDS011;13092;51.996;4.458;2023-11-21T01:52:14;31.40;;;28.50;;
25111;SDS011;13092;51.996;4.458;2023-11-21T01:54:42;31.15;;;28.13;;
25111;SDS011;13092;51.996;4.458;2023-11-21T01:57:10;30.75;;;28.15;;
25111;SDS011;13092;51.996;4.458;2023-11-21T01:59:38;31.85;;;28.73;;
25111;SDS011;13092;51.996;4.458;2023-11-21T02:02:08;31.83;;;28.50;;
25111;SDS011;13092;51.996;4.458;2023-11-21T02:04:36;30.65;;;27.85;;
25111;SDS011;13092;51.996;4.458;2023-11-21T02:07:05;31.23;;;28.42;;
25111;SDS011;13092;51.996;4.458;2023-11-21T02:09:34;31.33;;;28.45;;
25111;SDS011;13092;51.996;4.458;2023-11-21T02:12:04;30.38;;;27.42;;
25111;SDS011;13092;51.996;4.458;2023-11-21T02:14:33;30.55;;;27.70;;
25111;SDS011;13092;51.996;4.458;2023-11-21T02:17:01;30.52;;;27.83;;
25111;SDS011;13092;51.996;4.458;2023-11-21T02:19:30;32.00;;;28.65;;
25111;SDS011;13092;51.996;4.458;2023-11-21T02:21:59;30.52;;;27.92;;
25111;SDS011;13092;51.996;4.458;2023-11-21T02:24:32;31.55;;;28.85;;
25111;SDS011;13092;51.996;4.458;2023-11-21T02:27:00;31.38;;;28.40;;
25111;SDS011;13092;51.996;4.458;2023-11-21T02:29:28;32.15;;;28.83;;
25111;SDS011;13092;51.996;4.458;2023-11-21T02:31:56;31.80;;;28.75;;
25111;SDS011;13092;51.996;4.458;2023-11-21T02:34:26;31.38;;;28.65;;
25111;SDS011;13092;51.996;4.458;2023-11-21T02:36:54;31.33;;;28.23;;
25111;SDS011;13092;51.996;4.458;2023-11-21T02:39:23;31.95;;;29.05;;
25111;SDS011;13092;51.996;4.458;2023-11-21T02:41:53;32.50;;;29.42;;
25111;SDS011;13092;51.996;4.458;2023-11-21T02:44:21;31.10;;;28.13;;
25111;SDS011;13092;51.996;4.458;2023-11-21T02:46:49;31.70;;;28.88;;
25111;SDS011;13092;51.996;4.458;2023-11-21T02:49:17;30.40;;;27.80;;
25111;SDS011;13092;51.996;4.458;2023-11-21T02:51:45;31.27;;;28.42;;
25111;SDS011;13092;51.996;4.458;2023-11-21T02:54:13;30.50;;;27.55;;
25111;SDS011;13092;51.996;4.458;2023-11-21T02:56:45;30.55;;;27.55;;
25111;SDS011;13092;51.996;4.458;2023-11-21T02:59:15;30.48;;;27.52;;
25111;SDS011;13092;51.996;4.458;2023-11-21T03:01:43;31.15;;;28.30;;
25111;SDS011;13092;51.996;4.458;2023-11-21T03:04:11;31.42;;;28.42;;
25111;SDS011;13092;51.996;4.458;2023-11-21T03:06:44;31.85;;;29.02;;
25111;SDS011;13092;51.996;4.458;2023-11-21T03:09:12;30.15;;;27.42;;
25111;SDS011;13092;51.996;4.458;2023-11-21T03:11:40;30.33;;;27.42;;
25111;SDS011;13092;51.996;4.458;2023-11-21T03:14:08;30.10;;;27.55;;
25111;SDS011;13092;51.996;4.458;2023-11-21T03:16:38;30.15;;;27.52;;
25111;SDS011;13092;51.996;4.458;2023-11-21T03:19:07;32.63;;;29.42;;
25111;SDS011;13092;51.996;4.458;2023-11-21T03:21:36;31.08;;;28.38;;
25111;SDS011;13092;51.996;4.458;2023-11-21T03:24:04;29.90;;;27.40;;
25111;SDS011;13092;51.996;4.458;2023-11-21T03:26:33;30.80;;;27.90;;
25111;SDS011;13092;51.996;4.458;2023-11-21T03:29:03;30.27;;;27.65;;
25111;SDS011;13092;51.996;4.458;2023-11-21T03:31:32;31.00;;;28.00;;
25111;SDS011;13092;51.996;4.458;2023-11-21T03:34:03;30.75;;;27.67;;
25111;SDS011;13092;51.996;4.458;2023-11-21T03:36:33;30.33;;;27.63;;
25111;SDS011;13092;51.996;4.458;2023-11-21T03:39:06;31.75;;;28.73;;
25111;SDS011;13092;51.996;4.458;2023-11-21T03:41:35;30.38;;;27.58;;
25111;SDS011;13092;51.996;4.458;2023-11-21T03:44:04;30.55;;;27.90;;
25111;SDS011;13092;51.996;4.458;2023-11-21T03:46:35;29.90;;;27.10;;
25111;SDS011;13092;51.996;4.458;2023-11-21T03:49:05;30.02;;;27.40;;
25111;SDS011;13092;51.996;4.458;2023-11-21T03:51:34;29.38;;;26.77;;
25111;SDS011;13092;51.996;4.458;2023-11-21T03:54:03;29.60;;;27.15;;
25111;SDS011;13092;51.996;4.458;2023-11-21T03:56:31;31.30;;;28.15;;
25111;SDS011;13092;51.996;4.458;2023-11-21T03:59:00;31.27;;;28.23;;
25111;SDS011;13092;51.996;4.458;2023-11-21T04:01:29;29.85;;;27.25;;
25111;SDS011;13092;51.996;4.458;2023-11-21T04:03:58;30.25;;;27.65;;
25111;SDS011;13092;51.996;4.458;2023-11-21T04:06:28;29.63;;;27.02;;
25111;SDS011;13092;51.996;4.458;2023-11-21T04:08:56;30.75;;;28.05;;
25111;SDS011;13092;51.996;4.458;2023-11-21T04:11:24;29.35;;;26.63;;
25111;SDS011;13092;51.996;4.458;2023-11-21T04:13:54;28.80;;;26.42;;
25111;SDS011;13092;51.996;4.458;2023-11-21T04:16:22;29.35;;;26.90;;
25111;SDS011;13092;51.996;4.458;2023-11-21T04:18:51;30.33;;;27.42;;
25111;SDS011;13092;51.996;4.458;2023-11-21T04:21:19;29.90;;;27.10;;
25111;SDS011;13092;51.996;4.458;2023-11-21T04:23:48;29.88;;;27.23;;
25111;SDS011;13092;51.996;4.458;2023-11-21T04:26:17;29.48;;;26.83;;
25111;SDS011;13092;51.996;4.458;2023-11-21T04:28:45;29.27;;;26.45;;
25111;SDS011;13092;51.996;4.458;2023-11-21T04:31:13;30.23;;;27.55;;
25111;SDS011;13092;51.996;4.458;2023-11-21T04:33:41;30.27;;;27.58;;
25111;SDS011;13092;51.996;4.458;2023-11-21T04:36:11;30.65;;;27.85;;
25111;SDS011;13092;51.996;4.458;2023-11-21T04:38:49;30.83;;;27.83;;
25111;SDS011;13092;51.996;4.458;2023-11-21T04:41:18;29.67;;;26.85;;
25111;SDS011;13092;51.996;4.458;2023-11-21T04:43:46;28.77;;;26.30;;
25111;SDS011;13092;51.996;4.458;2023-11-21T04:46:15;29.80;;;27.20;;
25111;SDS011;13092;51.996;4.458;2023-11-21T04:48:44;30.00;;;26.88;;
25111;SDS011;13092;51.996;4.458;2023-11-21T04:51:13;29.38;;;26.67;;
25111;SDS011;13092;51.996;4.458;2023-11-21T04:53:41;28.85;;;26.33;;
25111;SDS011;13092;51.996;4.458;2023-11-21T04:56:11;29.27;;;26.88;;
25111;SDS011;13092;51.996;4.458;2023-11-21T04:58:40;28.50;;;26.13;;
25111;SDS011;13092;51.996;4.458;2023-11-21T05:01:08;29.58;;;26.48;;
25111;SDS011;13092;51.996;4.458;2023-11-21T05:03:36;28.95;;;26.17;;
25111;SDS011;13092;51.996;4.458;2023-11-21T05:06:05;27.73;;;25.42;;
25111;SDS011;13092;51.996;4.458;2023-11-21T05:08:34;29.02;;;26.52;;
25111;SDS011;13092;51.996;4.458;2023-11-21T05:11:03;28.65;;;26.02;;
25111;SDS011;13092;51.996;4.458;2023-11-21T05:13:35;29.48;;;26.88;;
25111;SDS011;13092;51.996;4.458;2023-11-21T05:16:03;28.77;;;26.38;;
25111;SDS011;13092;51.996;4.458;2023-11-21T05:18:33;29.75;;;26.88;;
25111;SDS011;13092;51.996;4.458;2023-11-21T05:21:01;29.23;;;26.60;;
25111;SDS011;13092;51.996;4.458;2023-11-21T05:23:30;28.70;;;25.98;;
25111;SDS011;13092;51.996;4.458;2023-11-21T05:25:58;29.65;;;26.88;;
25111;SDS011;13092;51.996;4.458;2023-11-21T05:28:26;29.20;;;26.52;;
25111;SDS011;13092;51.996;4.458;2023-11-21T05:30:56;29.88;;;27.27;;
25111;SDS011;13092;51.996;4.458;2023-11-21T05:33:41;30.10;;;27.13;;
25111;SDS011;13092;51.996;4.458;2023-11-21T05:36:09;29.08;;;26.52;;
25111;SDS011;13092;51.996;4.458;2023-11-21T05:38:38;29.30;;;26.85;;
25111;SDS011;13092;51.996;4.458;2023-11-21T05:41:06;29.50;;;26.95;;
25111;SDS011;13092;51.996;4.458;2023-11-21T05:43:36;28.95;;;26.48;;
25111;SDS011;13092;51.996;4.458;2023-11-21T05:46:07;28.92;;;26.30;;
25111;SDS011;13092;51.996;4.458;2023-11-21T05:48:35;28.40;;;25.83;;
25111;SDS011;13092;51.996;4.458;2023-11-21T05:51:04;29.70;;;26.75;;
25111;SDS011;13092;51.996;4.458;2023-11-21T05:53:34;29.58;;;27.05;;
25111;SDS011;13092;51.996;4.458;2023-11-21T05:56:03;29.40;;;26.80;;
25111;SDS011;13092;51.996;4.458;2023-11-21T05:58:31;28.73;;;26.33;;
25111;SDS011;13092;51.996;4.458;2023-11-21T06:00:59;29.48;;;26.77;;
25111;SDS011;13092;51.996;4.458;2023-11-21T06:03:29;29.30;;;26.77;;
25111;SDS011;13092;51.996;4.458;2023-11-21T06:05:58;28.55;;;26.08;;
25111;SDS011;13092;51.996;4.458;2023-11-21T06:08:26;28.75;;;26.33;;
25111;SDS011;13092;51.996;4.458;2023-11-21T06:10:54;28.50;;;26.10;;
25111;SDS011;13092;51.996;4.458;2023-11-21T06:13:22;27.95;;;25.55;;
25111;SDS011;13092;51.996;4.458;2023-11-21T06:15:51;29.00;;;26.60;;
25111;SDS011;13092;51.996;4.458;2023-11-21T06:18:19;28.10;;;25.73;;
25111;SDS011;13092;51.996;4.458;2023-11-21T06:20:49;28.20;;;25.80;;
25111;SDS011;13092;51.996;4.458;2023-11-21T06:23:19;27.27;;;25.08;;
25111;SDS011;13092;51.996;4.458;2023-11-21T06:25:47;27.27;;;24.98;;
25111;SDS011;13092;51.996;4.458;2023-11-21T06:28:15;27.65;;;25.35;;
25111;SDS011;13092;51.996;4.458;2023-11-21T06:30:44;26.13;;;24.02;;
25111;SDS011;13092;51.996;4.458;2023-11-21T06:33:12;26.33;;;24.23;;
25111;SDS011;13092;51.996;4.458;2023-11-21T06:35:41;27.42;;;24.83;;
25111;SDS011;13092;51.996;4.458;2023-11-21T06:38:10;27.05;;;24.95;;
25111;SDS011;13092;51.996;4.458;2023-11-21T06:40:38;26.05;;;24.02;;
25111;SDS011;13092;51.996;4.458;2023-11-21T06:43:10;26.65;;;24.45;;
25111;SDS011;13092;51.996;4.458;2023-11-21T06:45:38;26.30;;;24.20;;
25111;SDS011;13092;51.996;4.458;2023-11-21T06:48:06;26.35;;;24.35;;
25111;SDS011;13092;51.996;4.458;2023-11-21T06:50:34;26.50;;;24.13;;
25111;SDS011;13092;51.996;4.458;2023-11-21T06:53:02;25.92;;;23.92;;
25111;SDS011;13092;51.996;4.458;2023-11-21T06:55:34;26.33;;;24.27;;
25111;SDS011;13092;51.996;4.458;2023-11-21T06:58:02;26.60;;;24.50;;
25111;SDS011;13092;51.996;4.458;2023-11-21T07:00:31;27.02;;;24.73;;
25111;SDS011;13092;51.996;4.458;2023-11-21T07:03:02;28.92;;;25.95;;
25111;SDS011;13092;51.996;4.458;2023-11-21T07:05:31;27.38;;;25.27;;
25111;SDS011;13092;51.996;4.458;2023-11-21T07:07:59;27.23;;;25.02;;
25111;SDS011;13092;51.996;4.458;2023-11-21T07:10:31;28.05;;;25.85;;
25111;SDS011;13092;51.996;4.458;2023-11-21T07:13:01;27.05;;;24.95;;
25111;SDS011;13092;51.996;4.458;2023-11-21T07:15:29;27.52;;;25.33;;
25111;SDS011;13092;51.996;4.458;2023-11-21T07:17:57;27.65;;;25.35;;
25111;SDS011;13092;51.996;4.458;2023-11-21T07:20:25;28.05;;;25.75;;
25111;SDS011;13092;51.996;4.458;2023-11-21T07:22:53;28.05;;;25.67;;
25111;SDS011;13092;51.996;4.458;2023-11-21T07:25:22;26.88;;;24.75;;
25111;SDS011;13092;51.996;4.458;2023-11-21T07:27:50;28.48;;;25.67;;
25111;SDS011;13092;51.996;4.458;2023-11-21T07:30:20;27.02;;;24.20;;
25111;SDS011;13092;51.996;4.458;2023-11-21T07:32:49;26.70;;;24.50;;
25111;SDS011;13092;51.996;4.458;2023-11-21T07:35:17;27.33;;;24.92;;
25111;SDS011;13092;51.996;4.458;2023-11-21T07:37:46;26.48;;;24.13;;
25111;SDS011;13092;51.996;4.458;2023-11-21T07:40:15;26.85;;;24.65;;
25111;SDS011;13092;51.996;4.458;2023-11-21T07:42:43;26.40;;;24.15;;
25111;SDS011;13092;51.996;4.458;2023-11-21T07:45:11;26.38;;;24.17;;
25111;SDS011;13092;51.996;4.458;2023-11-21T07:47:43;26.05;;;23.88;;
25111;SDS011;13092;51.996;4.458;2023-11-21T07:50:11;26.20;;;23.70;;
25111;SDS011;13092;51.996;4.458;2023-11-21T07:52:40;27.48;;;24.75;;
25111;SDS011;13092;51.996;4.458;2023-11-21T07:55:08;26.35;;;23.80;;
25111;SDS011;13092;51.996;4.458;2023-11-21T07:57:38;26.88;;;24.35;;
25111;SDS011;13092;51.996;4.458;2023-11-21T08:00:07;25.42;;;23.33;;
25111;SDS011;13092;51.996;4.458;2023-11-21T08:02:38;26.02;;;23.63;;
25111;SDS011;13092;51.996;4.458;2023-11-21T08:05:11;27.25;;;24.80;;
25111;SDS011;13092;51.996;4.458;2023-11-21T08:07:50;25.77;;;23.58;;
25111;SDS011;13092;51.996;4.458;2023-11-21T08:10:18;28.17;;;25.23;;
25111;SDS011;13092;51.996;4.458;2023-11-21T08:12:48;27.13;;;24.73;;
25111;SDS011;13092;51.996;4.458;2023-11-21T08:15:17;28.75;;;26.00;;
25111;SDS011;13092;51.996;4.458;2023-11-21T08:17:45;27.70;;;25.27;;
25111;SDS011;13092;51.996;4.458;2023-11-21T08:20:16;29.02;;;26.20;;
25111;SDS011;13092;51.996;4.458;2023-11-21T08:22:45;28.17;;;25.70;;
25111;SDS011;13092;51.996;4.458;2023-11-21T08:25:14;27.92;;;25.20;;
25111;SDS011;13092;51.996;4.458;2023-11-21T08:27:43;27.95;;;25.42;;
25111;SDS011;13092;51.996;4.458;2023-11-21T08:30:12;28.38;;;25.63;;
25111;SDS011;13092;51.996;4.458;2023-11-21T08:32:40;27.80;;;25.08;;
25111;SDS011;13092;51.996;4.458;2023-11-21T08:35:08;26.95;;;24.48;;
25111;SDS011;13092;51.996;4.458;2023-11-21T08:37:40;27.55;;;25.05;;
25111;SDS011;13092;51.996;4.458;2023-11-21T08:40:09;28.00;;;25.27;;
25111;SDS011;13092;51.996;4.458;2023-11-21T08:42:43;28.95;;;25.95;;
25111;SDS011;13092;51.996;4.458;2023-11-21T08:45:14;27.02;;;24.65;;
25111;SDS011;13092;51.996;4.458;2023-11-21T08:47:44;29.02;;;25.98;;
25111;SDS011;13092;51.996;4.458;2023-11-21T08:50:13;28.10;;;25.27;;
25111;SDS011;13092;51.996;4.458;2023-11-21T08:52:44;27.30;;;24.73;;
25111;SDS011;13092;51.996;4.458;2023-11-21T08:55:13;27.38;;;24.70;;
25111;SDS011;13092;51.996;4.458;2023-11-21T08:57:43;27.58;;;24.85;;
25111;SDS011;13092;51.996;4.458;2023-11-21T09:00:13;26.90;;;24.15;;
25111;SDS011;13092;51.996;4.458;2023-11-21T09:02:43;25.13;;;23.02;;
25111;SDS011;13092;51.996;4.458;2023-11-21T09:05:13;26.02;;;23.83;;
25111;SDS011;13092;51.996;4.458;2023-11-21T09:07:44;25.85;;;23.63;;
25111;SDS011;13092;51.996;4.458;2023-11-21T09:10:15;26.27;;;23.90;;
25111;SDS011;13092;51.996;4.458;2023-11-21T09:12:43;25.73;;;23.50;;
25111;SDS011;13092;51.996;4.458;2023-11-21T09:15:11;25.52;;;23.35;;
25111;SDS011;13092;51.996;4.458;2023-11-21T09:17:41;25.23;;;23.13;;
25111;SDS011;13092;51.996;4.458;2023-11-21T09:20:11;25.23;;;23.13;;
25111;SDS011;13092;51.996;4.458;2023-11-21T09:22:41;25.85;;;23.77;;
25111;SDS011;13092;51.996;4.458;2023-11-21T09:25:13;24.95;;;22.85;;
25111;SDS011;13092;51.996;4.458;2023-11-21T09:27:41;26.45;;;24.05;;
25111;SDS011;13092;51.996;4.458;2023-11-21T09:30:10;25.17;;;23.17;;
25111;SDS011;13092;51.996;4.458;2023-11-21T09:32:40;27.15;;;24.85;;
25111;SDS011;13092;51.996;4.458;2023-11-21T09:35:12;26.83;;;24.42;;
25111;SDS011;13092;51.996;4.458;2023-11-21T09:37:41;26.98;;;24.58;;
25111;SDS011;13092;51.996;4.458;2023-11-21T09:40:15;26.30;;;24.10;;
25111;SDS011;13092;51.996;4.458;2023-11-21T09:42:49;26.80;;;24.58;;
25111;SDS011;13092;51.996;4.458;2023-11-21T09:45:24;27.10;;;24.70;;
25111;SDS011;13092;51.996;4.458;2023-11-21T09:47:54;26.38;;;24.17;;
25111;SDS011;13092;51.996;4.458;2023-11-21T09:50:23;26.42;;;24.15;;
25111;SDS011;13092;51.996;4.458;2023-11-21T09:53:02;27.17;;;24.77;;
25111;SDS011;13092;51.996;4.458;2023-11-21T09:55:42;26.65;;;24.40;;
25111;SDS011;13092;51.996;4.458;2023-11-21T09:58:10;26.48;;;24.10;;
25111;SDS011;13092;51.996;4.458;2023-11-21T10:00:40;28.13;;;25.52;;
25111;SDS011;13092;51.996;4.458;2023-11-21T10:03:09;27.17;;;24.70;;
25111;SDS011;13092;51.996;4.458;2023-11-21T10:05:38;27.73;;;25.23;;
25111;SDS011;13092;51.996;4.458;2023-11-21T10:08:09;28.10;;;25.50;;
25111;SDS011;13092;51.996;4.458;2023-11-21T10:10:38;27.77;;;25.38;;
25111;SDS011;13092;51.996;4.458;2023-11-21T10:13:13;27.75;;;25.27;;
25111;SDS011;13092;51.996;4.458;2023-11-21T10:15:44;28.08;;;25.65;;
25111;SDS011;13092;51.996;4.458;2023-11-21T10:18:16;27.65;;;25.15;;
25111;SDS011;13092;51.996;4.458;2023-11-21T10:20:45;28.30;;;25.90;;
25111;SDS011;13092;51.996;4.458;2023-11-21T10:23:22;28.58;;;26.13;;
25111;SDS011;13092;51.996;4.458;2023-11-21T10:25:52;28.77;;;26.35;;
25111;SDS011;13092;51.996;4.458;2023-11-21T10:28:25;28.02;;;25.65;;
25111;SDS011;13092;51.996;4.458;2023-11-21T10:30:56;27.05;;;24.83;;
25111;SDS011;13092;51.996;4.458;2023-11-21T10:33:31;27.60;;;25.20;;
25111;SDS011;13092;51.996;4.458;2023-11-21T10:36:01;28.35;;;25.88;;
25111;SDS011;13092;51.996;4.458;2023-11-21T10:38:42;27.92;;;25.50;;
25111;SDS011;13092;51.996;4.458;2023-11-21T10:41:12;26.80;;;24.60;;
25111;SDS011;13092;51.996;4.458;2023-11-21T10:44:06;27.73;;;25.33;;
25111;SDS011;13092;51.996;4.458;2023-11-21T10:46:38;27.85;;;25.60;;
25111;SDS011;13092;51.996;4.458;2023-11-21T10:49:09;27.25;;;24.95;;
25111;SDS011;13092;51.996;4.458;2023-11-21T10:51:46;27.48;;;25.17;;
25111;SDS011;13092;51.996;4.458;2023-11-21T10:54:19;27.17;;;25.02;;
25111;SDS011;13092;51.996;4.458;2023-11-21T10:56:48;26.42;;;24.13;;
25111;SDS011;13092;51.996;4.458;2023-11-21T10:59:18;27.00;;;24.73;;
25111;SDS011;13092;51.996;4.458;2023-11-21T11:01:51;27.15;;;24.85;;
25111;SDS011;13092;51.996;4.458;2023-11-21T11:04:21;27.85;;;25.55;;
25111;SDS011;13092;51.996;4.458;2023-11-21T11:06:55;29.42;;;26.73;;
25111;SDS011;13092;51.996;4.458;2023-11-21T11:09:33;29.98;;;27.38;;
25111;SDS011;13092;51.996;4.458;2023-11-21T11:12:02;29.83;;;27.35;;
25111;SDS011;13092;51.996;4.458;2023-11-21T11:14:32;30.35;;;27.85;;
25111;SDS011;13092;51.996;4.458;2023-11-21T11:17:01;30.88;;;28.23;;
25111;SDS011;13092;51.996;4.458;2023-11-21T11:19:32;30.83;;;28.33;;
25111;SDS011;13092;51.996;4.458;2023-11-21T11:22:08;32.10;;;29.40;;
25111;SDS011;13092;51.996;4.458;2023-11-21T11:24:53;30.40;;;27.80;;
25111;SDS011;13092;51.996;4.458;2023-11-21T11:27:44;32.58;;;29.67;;
25111;SDS011;13092;51.996;4.458;2023-11-21T11:30:26;32.17;;;29.23;;
25111;SDS011;13092;51.996;4.458;2023-11-21T11:33:07;32.25;;;29.45;;
25111;SDS011;13092;51.996;4.458;2023-11-21T11:35:42;31.73;;;28.92;;
25111;SDS011;13092;51.996;4.458;2023-11-21T11:38:31;33.00;;;30.10;;
25111;SDS011;13092;51.996;4.458;2023-11-21T11:41:04;32.78;;;29.73;;
25111;SDS011;13092;51.996;4.458;2023-11-21T11:43:35;32.30;;;29.50;;
25111;SDS011;13092;51.996;4.458;2023-11-21T11:46:11;32.45;;;29.38;;
25111;SDS011;13092;51.996;4.458;2023-11-21T11:48:41;35.03;;;31.88;;
25111;SDS011;13092;51.996;4.458;2023-11-21T11:51:13;34.35;;;31.00;;
25111;SDS011;13092;51.996;4.458;2023-11-21T11:54:03;32.83;;;29.90;;
25111;SDS011;13092;51.996;4.458;2023-11-21T11:57:14;35.38;;;31.98;;
25111;SDS011;13092;51.996;4.458;2023-11-21T12:02:37;32.10;;;29.23;;
25111;SDS011;13092;51.996;4.458;2023-11-21T12:05:09;31.63;;;28.95;;
25111;SDS011;13092;51.996;4.458;2023-11-21T12:07:46;32.58;;;29.73;;
25111;SDS011;13092;51.996;4.458;2023-11-21T12:10:17;32.53;;;29.60;;
25111;SDS011;13092;51.996;4.458;2023-11-21T12:12:49;33.05;;;29.95;;
25111;SDS011;13092;51.996;4.458;2023-11-21T12:15:18;32.83;;;29.83;;
25111;SDS011;13092;51.996;4.458;2023-11-21T12:17:48;33.38;;;30.38;;
25111;SDS011;13092;51.996;4.458;2023-11-21T12:20:18;32.38;;;29.58;;
25111;SDS011;13092;51.996;4.458;2023-11-21T12:22:47;31.75;;;29.05;;
25111;SDS011;13092;51.996;4.458;2023-11-21T12:25:17;31.77;;;28.98;;
25111;SDS011;13092;51.996;4.458;2023-11-21T12:27:46;31.13;;;28.52;;
25111;SDS011;13092;51.996;4.458;2023-11-21T12:30:18;31.90;;;29.10;;
25111;SDS011;13092;51.996;4.458;2023-11-21T12:32:48;30.55;;;28.05;;
25111;SDS011;13092;51.996;4.458;2023-11-21T12:35:19;31.50;;;28.70;;
25111;SDS011;13092;51.996;4.458;2023-11-21T12:37:49;30.25;;;27.63;;
25111;SDS011;13092;51.996;4.458;2023-11-21T12:40:19;30.27;;;27.70;;
25111;SDS011;13092;51.996;4.458;2023-11-21T12:42:51;29.10;;;26.58;;
25111;SDS011;13092;51.996;4.458;2023-11-21T12:45:21;29.75;;;27.02;;
25111;SDS011;13092;51.996;4.458;2023-11-21T12:47:54;28.38;;;26.08;;
25111;SDS011;13092;51.996;4.458;2023-11-21T12:50:26;30.15;;;27.58;;
25111;SDS011;13092;51.996;4.458;2023-11-21T12:52:58;30.05;;;27.63;;
25111;SDS011;13092;51.996;4.458;2023-11-21T12:55:32;29.23;;;26.63;;
25111;SDS011;13092;51.996;4.458;2023-11-21T12:58:05;28.77;;;26.40;;
25111;SDS011;13092;51.996;4.458;2023-11-21T13:00:39;29.00;;;26.70;;
25111;SDS011;13092;51.996;4.458;2023-11-21T13:03:15;28.42;;;26.02;;
25111;SDS011;13092;51.996;4.458;2023-11-21T13:05:46;28.45;;;26.05;;
25111;SDS011;13092;51.996;4.458;2023-11-21T13:08:18;27.75;;;25.42;;
25111;SDS011;13092;51.996;4.458;2023-11-21T13:10:49;27.95;;;25.75;;
25111;SDS011;13092;51.996;4.458;2023-11-21T13:13:20;28.60;;;26.10;;
25111;SDS011;13092;51.996;4.458;2023-11-21T13:15:52;27.58;;;25.27;;
25111;SDS011;13092;51.996;4.458;2023-11-21T13:18:23;26.67;;;24.48;;
25111;SDS011;13092;51.996;4.458;2023-11-21T13:20:53;27.88;;;25.38;;
25111;SDS011;13092;51.996;4.458;2023-11-21T13:23:24;28.38;;;25.77;;
25111;SDS011;13092;51.996;4.458;2023-11-21T13:25:53;26.73;;;24.50;;
25111;SDS011;13092;51.996;4.458;2023-11-21T13:28:32;28.08;;;25.58;;
25111;SDS011;13092;51.996;4.458;2023-11-21T13:31:03;26.98;;;24.67;;
25111;SDS011;13092;51.996;4.458;2023-11-21T13:33:37;26.30;;;24.20;;
25111;SDS011;13092;51.996;4.458;2023-11-21T13:36:09;25.75;;;23.65;;
25111;SDS011;13092;51.996;4.458;2023-11-21T13:38:38;26.92;;;24.73;;
25111;SDS011;13092;51.996;4.458;2023-11-21T13:41:09;26.50;;;24.35;;
25111;SDS011;13092;51.996;4.458;2023-11-21T13:43:40;27.60;;;25.27;;
25111;SDS011;13092;51.996;4.458;2023-11-21T13:46:12;28.05;;;25.55;;
25111;SDS011;13092;51.996;4.458;2023-11-21T13:48:43;28.52;;;26.02;;
25111;SDS011;13092;51.996;4.458;2023-11-21T13:51:20;28.02;;;25.65;;
25111;SDS011;13092;51.996;4.458;2023-11-21T13:53:55;28.58;;;26.05;;
25111;SDS011;13092;51.996;4.458;2023-11-21T13:56:24;28.35;;;25.95;;
25111;SDS011;13092;51.996;4.458;2023-11-21T13:58:54;29.42;;;26.75;;
25111;SDS011;13092;51.996;4.458;2023-11-21T14:01:25;29.60;;;26.95;;
25111;SDS011;13092;51.996;4.458;2023-11-21T14:04:14;29.60;;;27.05;;
25111;SDS011;13092;51.996;4.458;2023-11-21T14:06:58;30.27;;;27.55;;
25111;SDS011;13092;51.996;4.458;2023-11-21T14:09:37;28.85;;;26.45;;
25111;SDS011;13092;51.996;4.458;2023-11-21T14:12:10;29.98;;;27.35;;
25111;SDS011;13092;51.996;4.458;2023-11-21T14:14:39;30.23;;;27.45;;
25111;SDS011;13092;51.996;4.458;2023-11-21T14:17:09;29.13;;;26.70;;
25111;SDS011;13092;51.996;4.458;2023-11-21T14:19:37;26.77;;;24.58;;
25111;SDS011;13092;51.996;4.458;2023-11-21T14:22:09;28.83;;;26.40;;
25111;SDS011;13092;51.996;4.458;2023-11-21T14:24:40;28.48;;;26.02;;
25111;SDS011;13092;51.996;4.458;2023-11-21T14:27:13;29.52;;;27.05;;
25111;SDS011;13092;51.996;4.458;2023-11-21T14:29:42;29.65;;;26.95;;
25111;SDS011;13092;51.996;4.458;2023-11-21T14:32:13;30.65;;;27.85;;
25111;SDS011;13092;51.996;4.458;2023-11-21T14:34:42;30.52;;;27.83;;
25111;SDS011;13092;51.996;4.458;2023-11-21T14:37:13;31.10;;;28.40;;
25111;SDS011;13092;51.996;4.458;2023-11-21T14:39:41;31.90;;;29.02;;
25111;SDS011;13092;51.996;4.458;2023-11-21T14:42:12;30.38;;;27.70;;